sensor_id;sensor_type;location;lat;lon;timestamp;P1;durP1;ratioP1;P2;durP2;ratioP2
52668;SDS011;76842;52.786;6.892;2024-03-17T00:00:34;21.27;;;8.98;;
52668;SDS011;76842;52.786;6.892;2024-03-17T00:03:55;17.60;;;11.10;;
52668;SDS011;76842;52.786;6.892;2024-03-17T00:07:16;12.50;;;9.18;;
52668;SDS011;76842;52.786;6.892;2024-03-17T00:10:37;20.13;;;8.95;;
52668;SDS011;76842;52.786;6.892;2024-03-17T00:13:58;18.13;;;8.85;;
52668;SDS011;76842;52.786;6.892;2024-03-17T00:17:19;15.35;;;8.73;;
52668;SDS011;76842;52.786;6.892;2024-03-17T00:20:41;18.95;;;9.23;;
52668;SDS011;76842;52.786;6.892;2024-03-17T00:24:01;17.08;;;8.13;;
52668;SDS011;76842;52.786;6.892;2024-03-17T00:27:23;18.58;;;9.48;;
52668;SDS011;76842;52.786;6.892;2024-03-17T00:30:43;19.85;;;8.32;;
52668;SDS011;76842;52.786;6.892;2024-03-17T00:34:04;15.20;;;8.63;;
52668;SDS011;76842;52.786;6.892;2024-03-17T00:37:25;11.70;;;7.35;;
52668;SDS011;76842;52.786;6.892;2024-03-17T00:40:45;14.55;;;7.38;;
52668;SDS011;76842;52.786;6.892;2024-03-17T00:44:07;13.27;;;8.02;;
52668;SDS011;76842;52.786;6.892;2024-03-17T00:47:28;16.38;;;8.10;;
52668;SDS011;76842;52.786;6.892;2024-03-17T00:50:54;14.68;;;8.50;;
52668;SDS011;76842;52.786;6.892;2024-03-17T00:54:16;13.43;;;7.70;;
52668;SDS011;76842;52.786;6.892;2024-03-17T00:57:38;14.52;;;7.35;;
52668;SDS011;76842;52.786;6.892;2024-03-17T01:00:58;16.77;;;9.18;;
52668;SDS011;76842;52.786;6.892;2024-03-17T01:04:19;22.77;;;12.65;;
52668;SDS011;76842;52.786;6.892;2024-03-17T01:07:40;21.73;;;10.93;;
52668;SDS011;76842;52.786;6.892;2024-03-17T01:11:00;16.92;;;9.75;;
52668;SDS011;76842;52.786;6.892;2024-03-17T01:14:23;30.55;;;14.55;;
52668;SDS011;76842;52.786;6.892;2024-03-17T01:17:43;15.77;;;9.50;;
52668;SDS011;76842;52.786;6.892;2024-03-17T01:21:04;16.75;;;8.50;;
52668;SDS011;76842;52.786;6.892;2024-03-17T01:24:25;13.77;;;7.25;;
52668;SDS011;76842;52.786;6.892;2024-03-17T01:27:51;14.45;;;7.90;;
52668;SDS011;76842;52.786;6.892;2024-03-17T01:31:12;19.10;;;10.38;;
52668;SDS011;76842;52.786;6.892;2024-03-17T01:34:33;16.48;;;9.27;;
52668;SDS011;76842;52.786;6.892;2024-03-17T01:37:54;14.00;;;7.88;;
52668;SDS011;76842;52.786;6.892;2024-03-17T01:41:15;14.05;;;7.22;;
52668;SDS011;76842;52.786;6.892;2024-03-17T01:44:36;16.80;;;8.25;;
52668;SDS011;76842;52.786;6.892;2024-03-17T01:47:57;16.20;;;7.97;;
52668;SDS011;76842;52.786;6.892;2024-03-17T01:51:22;12.40;;;7.18;;
52668;SDS011;76842;52.786;6.892;2024-03-17T01:54:43;18.20;;;8.20;;
52668;SDS011;76842;52.786;6.892;2024-03-17T01:58:05;14.82;;;8.07;;
52668;SDS011;76842;52.786;6.892;2024-03-17T02:01:30;17.15;;;9.35;;
52668;SDS011;76842;52.786;6.892;2024-03-17T02:04:51;16.08;;;9.20;;
52668;SDS011;76842;52.786;6.892;2024-03-17T02:08:13;11.40;;;7.25;;
52668;SDS011;76842;52.786;6.892;2024-03-17T02:11:33;12.52;;;8.25;;
52668;SDS011;76842;52.786;6.892;2024-03-17T02:14:54;14.73;;;8.77;;
52668;SDS011;76842;52.786;6.892;2024-03-17T02:18:15;18.52;;;9.60;;
52668;SDS011;76842;52.786;6.892;2024-03-17T02:21:36;17.20;;;8.43;;
52668;SDS011;76842;52.786;6.892;2024-03-17T02:24:58;14.13;;;8.52;;
52668;SDS011;76842;52.786;6.892;2024-03-17T02:28:18;12.13;;;8.63;;
52668;SDS011;76842;52.786;6.892;2024-03-17T02:31:39;18.23;;;8.50;;
52668;SDS011;76842;52.786;6.892;2024-03-17T02:35:00;14.20;;;7.65;;
52668;SDS011;76842;52.786;6.892;2024-03-17T02:38:21;15.88;;;8.50;;
52668;SDS011;76842;52.786;6.892;2024-03-17T02:45:22;14.35;;;8.20;;
52668;SDS011;76842;52.786;6.892;2024-03-17T02:48:43;14.45;;;8.40;;
52668;SDS011;76842;52.786;6.892;2024-03-17T02:52:07;12.80;;;8.55;;
52668;SDS011;76842;52.786;6.892;2024-03-17T02:55:32;17.27;;;8.15;;
52668;SDS011;76842;52.786;6.892;2024-03-17T02:58:52;14.60;;;9.52;;
52668;SDS011;76842;52.786;6.892;2024-03-17T03:02:14;16.58;;;8.10;;
52668;SDS011;76842;52.786;6.892;2024-03-17T03:05:34;12.05;;;7.93;;
52668;SDS011;76842;52.786;6.892;2024-03-17T03:08:55;14.23;;;8.52;;
52668;SDS011;76842;52.786;6.892;2024-03-17T03:12:16;14.25;;;7.68;;
52668;SDS011;76842;52.786;6.892;2024-03-17T03:15:36;15.25;;;8.35;;
52668;SDS011;76842;52.786;6.892;2024-03-17T03:18:57;12.15;;;8.10;;
52668;SDS011;76842;52.786;6.892;2024-03-17T03:22:18;14.48;;;7.72;;
52668;SDS011;76842;52.786;6.892;2024-03-17T03:25:41;20.60;;;9.05;;
52668;SDS011;76842;52.786;6.892;2024-03-17T03:29:02;16.77;;;10.30;;
52668;SDS011;76842;52.786;6.892;2024-03-17T03:32:24;14.45;;;8.77;;
52668;SDS011;76842;52.786;6.892;2024-03-17T03:35:45;14.32;;;9.30;;
52668;SDS011;76842;52.786;6.892;2024-03-17T03:39:05;15.15;;;7.85;;
52668;SDS011;76842;52.786;6.892;2024-03-17T03:42:26;11.18;;;7.45;;
52668;SDS011;76842;52.786;6.892;2024-03-17T03:45:47;9.60;;;7.00;;
52668;SDS011;76842;52.786;6.892;2024-03-17T03:49:08;17.70;;;8.10;;
52668;SDS011;76842;52.786;6.892;2024-03-17T03:52:29;16.45;;;7.25;;
52668;SDS011;76842;52.786;6.892;2024-03-17T03:55:49;16.67;;;8.95;;
52668;SDS011;76842;52.786;6.892;2024-03-17T03:59:10;9.45;;;7.63;;
52668;SDS011;76842;52.786;6.892;2024-03-17T04:02:31;11.90;;;8.98;;
52668;SDS011;76842;52.786;6.892;2024-03-17T04:06:00;18.33;;;8.50;;
52668;SDS011;76842;52.786;6.892;2024-03-17T04:09:24;13.70;;;8.93;;
52668;SDS011;76842;52.786;6.892;2024-03-17T04:12:45;14.98;;;9.98;;
52668;SDS011;76842;52.786;6.892;2024-03-17T04:16:06;20.45;;;8.70;;
52668;SDS011;76842;52.786;6.892;2024-03-17T04:19:27;12.77;;;8.30;;
52668;SDS011;76842;52.786;6.892;2024-03-17T04:22:48;11.32;;;7.40;;
52668;SDS011;76842;52.786;6.892;2024-03-17T04:26:09;16.35;;;9.15;;
52668;SDS011;76842;52.786;6.892;2024-03-17T04:29:30;12.98;;;8.60;;
52668;SDS011;76842;52.786;6.892;2024-03-17T04:32:50;12.52;;;7.82;;
52668;SDS011;76842;52.786;6.892;2024-03-17T04:36:12;11.73;;;6.53;;
52668;SDS011;76842;52.786;6.892;2024-03-17T04:39:34;19.75;;;8.68;;
52668;SDS011;76842;52.786;6.892;2024-03-17T04:42:54;12.80;;;8.68;;
52668;SDS011;76842;52.786;6.892;2024-03-17T04:46:15;9.95;;;7.38;;
52668;SDS011;76842;52.786;6.892;2024-03-17T04:49:36;11.70;;;7.53;;
52668;SDS011;76842;52.786;6.892;2024-03-17T04:52:58;11.82;;;7.88;;
52668;SDS011;76842;52.786;6.892;2024-03-17T04:56:19;18.00;;;8.27;;
52668;SDS011;76842;52.786;6.892;2024-03-17T04:59:40;12.45;;;7.57;;
52668;SDS011;76842;52.786;6.892;2024-03-17T05:03:01;15.73;;;9.07;;
52668;SDS011;76842;52.786;6.892;2024-03-17T05:06:21;12.60;;;8.25;;
52668;SDS011;76842;52.786;6.892;2024-03-17T05:09:42;11.35;;;7.40;;
52668;SDS011;76842;52.786;6.892;2024-03-17T05:13:06;11.95;;;7.10;;
52668;SDS011;76842;52.786;6.892;2024-03-17T05:16:27;12.05;;;6.28;;
52668;SDS011;76842;52.786;6.892;2024-03-17T05:19:49;10.02;;;6.75;;
52668;SDS011;76842;52.786;6.892;2024-03-17T05:23:10;10.70;;;6.82;;
52668;SDS011;76842;52.786;6.892;2024-03-17T05:26:30;11.25;;;6.65;;
52668;SDS011;76842;52.786;6.892;2024-03-17T05:29:51;9.43;;;6.57;;
52668;SDS011;76842;52.786;6.892;2024-03-17T05:33:12;12.35;;;6.20;;
52668;SDS011;76842;52.786;6.892;2024-03-17T05:36:32;17.27;;;7.03;;
52668;SDS011;76842;52.786;6.892;2024-03-17T05:39:53;11.38;;;7.47;;
52668;SDS011;76842;52.786;6.892;2024-03-17T05:43:14;12.07;;;7.03;;
52668;SDS011;76842;52.786;6.892;2024-03-17T05:46:35;11.82;;;6.40;;
52668;SDS011;76842;52.786;6.892;2024-03-17T05:49:55;12.40;;;6.78;;
52668;SDS011;76842;52.786;6.892;2024-03-17T05:53:16;15.23;;;7.20;;
52668;SDS011;76842;52.786;6.892;2024-03-17T05:56:38;13.27;;;6.35;;
52668;SDS011;76842;52.786;6.892;2024-03-17T05:59:59;14.15;;;6.93;;
52668;SDS011;76842;52.786;6.892;2024-03-17T06:03:19;9.63;;;5.70;;
52668;SDS011;76842;52.786;6.892;2024-03-17T06:06:41;11.63;;;6.65;;
52668;SDS011;76842;52.786;6.892;2024-03-17T06:10:02;8.10;;;6.57;;
52668;SDS011;76842;52.786;6.892;2024-03-17T06:13:22;9.88;;;6.10;;
52668;SDS011;76842;52.786;6.892;2024-03-17T06:16:45;9.85;;;6.60;;
52668;SDS011;76842;52.786;6.892;2024-03-17T06:20:06;10.98;;;6.78;;
52668;SDS011;76842;52.786;6.892;2024-03-17T06:23:31;9.65;;;6.30;;
52668;SDS011;76842;52.786;6.892;2024-03-17T06:26:51;15.93;;;8.32;;
52668;SDS011;76842;52.786;6.892;2024-03-17T06:30:12;11.90;;;7.28;;
52668;SDS011;76842;52.786;6.892;2024-03-17T06:33:36;12.00;;;7.97;;
52668;SDS011;76842;52.786;6.892;2024-03-17T06:36:57;16.67;;;8.20;;
52668;SDS011;76842;52.786;6.892;2024-03-17T06:40:19;16.05;;;10.15;;
52668;SDS011;76842;52.786;6.892;2024-03-17T06:43:40;17.55;;;13.80;;
52668;SDS011;76842;52.786;6.892;2024-03-17T06:47:03;20.30;;;16.38;;
52668;SDS011;76842;52.786;6.892;2024-03-17T06:50:24;22.17;;;18.27;;
52668;SDS011;76842;52.786;6.892;2024-03-17T06:53:45;22.80;;;19.27;;
52668;SDS011;76842;52.786;6.892;2024-03-17T06:57:05;24.52;;;19.73;;
52668;SDS011;76842;52.786;6.892;2024-03-17T07:00:26;24.13;;;18.45;;
52668;SDS011;76842;52.786;6.892;2024-03-17T07:03:47;20.45;;;16.83;;
52668;SDS011;76842;52.786;6.892;2024-03-17T07:07:07;19.20;;;16.45;;
52668;SDS011;76842;52.786;6.892;2024-03-17T07:10:28;16.02;;;14.35;;
52668;SDS011;76842;52.786;6.892;2024-03-17T07:13:49;22.40;;;14.70;;
52668;SDS011;76842;52.786;6.892;2024-03-17T07:17:11;14.43;;;12.50;;
52668;SDS011;76842;52.786;6.892;2024-03-17T07:20:32;14.02;;;8.90;;
52668;SDS011;76842;52.786;6.892;2024-03-17T07:23:53;15.85;;;7.80;;
52668;SDS011;76842;52.786;6.892;2024-03-17T07:27:13;11.43;;;6.25;;
52668;SDS011;76842;52.786;6.892;2024-03-17T07:30:34;9.68;;;6.50;;
52668;SDS011;76842;52.786;6.892;2024-03-17T07:33:55;13.50;;;5.65;;
52668;SDS011;76842;52.786;6.892;2024-03-17T07:37:16;12.82;;;5.72;;
52668;SDS011;76842;52.786;6.892;2024-03-17T07:40:37;11.48;;;5.45;;
52668;SDS011;76842;52.786;6.892;2024-03-17T07:43:58;12.45;;;5.20;;
52668;SDS011;76842;52.786;6.892;2024-03-17T07:47:19;8.77;;;5.03;;
52668;SDS011;76842;52.786;6.892;2024-03-17T07:50:39;9.70;;;5.22;;
52668;SDS011;76842;52.786;6.892;2024-03-17T07:54:00;10.75;;;5.88;;
52668;SDS011;76842;52.786;6.892;2024-03-17T07:57:21;8.07;;;4.90;;
52668;SDS011;76842;52.786;6.892;2024-03-17T08:00:42;8.85;;;5.88;;
52668;SDS011;76842;52.786;6.892;2024-03-17T08:04:03;11.70;;;5.35;;
52668;SDS011;76842;52.786;6.892;2024-03-17T08:07:24;14.55;;;5.32;;
52668;SDS011;76842;52.786;6.892;2024-03-17T08:10:45;9.45;;;4.28;;
52668;SDS011;76842;52.786;6.892;2024-03-17T08:17:29;7.55;;;4.38;;
52668;SDS011;76842;52.786;6.892;2024-03-17T08:20:49;7.18;;;4.38;;
52668;SDS011;76842;52.786;6.892;2024-03-17T08:24:10;11.90;;;5.68;;
52668;SDS011;76842;52.786;6.892;2024-03-17T08:27:31;13.10;;;5.43;;
52668;SDS011;76842;52.786;6.892;2024-03-17T08:30:52;11.13;;;5.53;;
52668;SDS011;76842;52.786;6.892;2024-03-17T08:34:14;7.97;;;4.47;;
52668;SDS011;76842;52.786;6.892;2024-03-17T08:37:35;11.13;;;5.28;;
52668;SDS011;76842;52.786;6.892;2024-03-17T08:40:57;9.15;;;5.22;;
52668;SDS011;76842;52.786;6.892;2024-03-17T08:44:21;8.65;;;5.78;;
52668;SDS011;76842;52.786;6.892;2024-03-17T08:47:42;8.85;;;5.72;;
52668;SDS011;76842;52.786;6.892;2024-03-17T08:51:04;9.68;;;5.70;;
52668;SDS011;76842;52.786;6.892;2024-03-17T08:54:25;11.75;;;6.07;;
52668;SDS011;76842;52.786;6.892;2024-03-17T08:57:46;17.73;;;6.60;;
52668;SDS011;76842;52.786;6.892;2024-03-17T09:01:07;8.25;;;5.13;;
52668;SDS011;76842;52.786;6.892;2024-03-17T09:04:28;10.32;;;5.60;;
52668;SDS011;76842;52.786;6.892;2024-03-17T09:07:49;12.20;;;6.28;;
52668;SDS011;76842;52.786;6.892;2024-03-17T09:11:11;12.93;;;6.25;;
52668;SDS011;76842;52.786;6.892;2024-03-17T09:14:33;11.50;;;6.05;;
52668;SDS011;76842;52.786;6.892;2024-03-17T09:17:54;10.88;;;5.68;;
52668;SDS011;76842;52.786;6.892;2024-03-17T09:21:14;13.65;;;6.47;;
52668;SDS011;76842;52.786;6.892;2024-03-17T09:24:36;11.48;;;6.60;;
52668;SDS011;76842;52.786;6.892;2024-03-17T09:27:57;12.35;;;6.80;;
52668;SDS011;76842;52.786;6.892;2024-03-17T09:31:18;15.23;;;6.32;;
52668;SDS011;76842;52.786;6.892;2024-03-17T09:34:42;15.00;;;6.35;;
52668;SDS011;76842;52.786;6.892;2024-03-17T09:38:07;9.88;;;5.68;;
52668;SDS011;76842;52.786;6.892;2024-03-17T09:41:28;12.18;;;7.07;;
52668;SDS011;76842;52.786;6.892;2024-03-17T09:44:50;15.90;;;6.70;;
52668;SDS011;76842;52.786;6.892;2024-03-17T09:48:15;8.93;;;6.38;;
52668;SDS011;76842;52.786;6.892;2024-03-17T09:51:38;8.70;;;5.63;;
52668;SDS011;76842;52.786;6.892;2024-03-17T09:55:00;15.48;;;7.20;;
52668;SDS011;76842;52.786;6.892;2024-03-17T09:58:30;13.05;;;6.95;;
52668;SDS011;76842;52.786;6.892;2024-03-17T10:01:51;11.43;;;7.10;;
52668;SDS011;76842;52.786;6.892;2024-03-17T10:05:19;14.18;;;7.00;;
52668;SDS011;76842;52.786;6.892;2024-03-17T10:12:28;10.77;;;7.10;;
52668;SDS011;76842;52.786;6.892;2024-03-17T10:15:49;13.68;;;7.22;;
52668;SDS011;76842;52.786;6.892;2024-03-17T10:22:34;12.95;;;7.50;;
52668;SDS011;76842;52.786;6.892;2024-03-17T10:25:55;12.60;;;7.40;;
52668;SDS011;76842;52.786;6.892;2024-03-17T10:33:03;11.82;;;7.65;;
52668;SDS011;76842;52.786;6.892;2024-03-17T10:36:26;13.10;;;8.50;;
52668;SDS011;76842;52.786;6.892;2024-03-17T10:39:47;15.18;;;8.10;;
52668;SDS011;76842;52.786;6.892;2024-03-17T10:43:11;11.68;;;7.40;;
52668;SDS011;76842;52.786;6.892;2024-03-17T10:46:32;9.45;;;7.32;;
52668;SDS011;76842;52.786;6.892;2024-03-17T10:49:54;11.98;;;8.50;;
52668;SDS011;76842;52.786;6.892;2024-03-17T10:53:19;11.23;;;8.43;;
52668;SDS011;76842;52.786;6.892;2024-03-17T10:56:46;10.00;;;7.75;;
52668;SDS011;76842;52.786;6.892;2024-03-17T11:00:07;10.57;;;7.20;;
52668;SDS011;76842;52.786;6.892;2024-03-17T11:03:31;9.70;;;7.68;;
52668;SDS011;76842;52.786;6.892;2024-03-17T11:06:52;12.05;;;7.75;;
52668;SDS011;76842;52.786;6.892;2024-03-17T11:10:15;11.53;;;8.83;;
52668;SDS011;76842;52.786;6.892;2024-03-17T11:13:47;11.73;;;8.40;;
52668;SDS011;76842;52.786;6.892;2024-03-17T11:17:18;11.63;;;8.23;;
52668;SDS011;76842;52.786;6.892;2024-03-17T11:20:42;11.02;;;8.30;;
52668;SDS011;76842;52.786;6.892;2024-03-17T11:24:19;11.65;;;8.75;;
52668;SDS011;76842;52.786;6.892;2024-03-17T11:27:41;11.82;;;9.27;;
52668;SDS011;76842;52.786;6.892;2024-03-17T11:31:01;12.75;;;10.40;;
52668;SDS011;76842;52.786;6.892;2024-03-17T11:34:35;11.57;;;8.45;;
52668;SDS011;76842;52.786;6.892;2024-03-17T11:37:57;10.57;;;6.95;;
52668;SDS011;76842;52.786;6.892;2024-03-17T11:45:09;12.00;;;7.68;;
52668;SDS011;76842;52.786;6.892;2024-03-17T11:48:35;12.07;;;8.25;;
52668;SDS011;76842;52.786;6.892;2024-03-17T11:51:58;7.78;;;6.85;;
52668;SDS011;76842;52.786;6.892;2024-03-17T11:55:19;10.32;;;8.60;;
52668;SDS011;76842;52.786;6.892;2024-03-17T11:58:40;8.82;;;7.57;;
52668;SDS011;76842;52.786;6.892;2024-03-17T12:02:01;9.75;;;7.53;;
52668;SDS011;76842;52.786;6.892;2024-03-17T12:05:22;12.45;;;8.38;;
52668;SDS011;76842;52.786;6.892;2024-03-17T12:08:44;10.50;;;7.43;;
52668;SDS011;76842;52.786;6.892;2024-03-17T12:12:05;10.80;;;8.10;;
52668;SDS011;76842;52.786;6.892;2024-03-17T12:15:31;10.82;;;8.75;;
52668;SDS011;76842;52.786;6.892;2024-03-17T12:18:51;16.05;;;8.95;;
52668;SDS011;76842;52.786;6.892;2024-03-17T12:22:22;8.95;;;7.35;;
52668;SDS011;76842;52.786;6.892;2024-03-17T12:25:46;11.52;;;8.43;;
52668;SDS011;76842;52.786;6.892;2024-03-17T12:29:23;9.32;;;7.25;;
52668;SDS011;76842;52.786;6.892;2024-03-17T12:36:12;11.55;;;7.30;;
52668;SDS011;76842;52.786;6.892;2024-03-17T12:39:34;12.45;;;7.43;;
52668;SDS011;76842;52.786;6.892;2024-03-17T12:42:55;8.45;;;6.55;;
52668;SDS011;76842;52.786;6.892;2024-03-17T12:46:19;7.15;;;6.13;;
52668;SDS011;76842;52.786;6.892;2024-03-17T12:49:44;10.43;;;6.97;;
52668;SDS011;76842;52.786;6.892;2024-03-17T12:53:05;10.93;;;7.43;;
52668;SDS011;76842;52.786;6.892;2024-03-17T12:56:35;10.13;;;6.57;;
52668;SDS011;76842;52.786;6.892;2024-03-17T13:00:25;9.20;;;6.93;;
52668;SDS011;76842;52.786;6.892;2024-03-17T13:03:52;9.68;;;6.68;;
52668;SDS011;76842;52.786;6.892;2024-03-17T13:07:12;9.05;;;6.45;;
52668;SDS011;76842;52.786;6.892;2024-03-17T13:10:33;8.82;;;6.55;;
52668;SDS011;76842;52.786;6.892;2024-03-17T13:13:54;8.43;;;7.03;;
52668;SDS011;76842;52.786;6.892;2024-03-17T13:17:15;8.68;;;7.68;;
52668;SDS011;76842;52.786;6.892;2024-03-17T13:20:42;8.60;;;7.03;;
52668;SDS011;76842;52.786;6.892;2024-03-17T13:24:03;12.18;;;7.30;;
52668;SDS011;76842;52.786;6.892;2024-03-17T13:27:25;12.82;;;7.32;;
52668;SDS011;76842;52.786;6.892;2024-03-17T13:30:45;9.07;;;7.28;;
52668;SDS011;76842;52.786;6.892;2024-03-17T13:34:07;9.52;;;7.15;;
52668;SDS011;76842;52.786;6.892;2024-03-17T13:37:29;8.95;;;6.63;;
52668;SDS011;76842;52.786;6.892;2024-03-17T13:40:49;10.35;;;7.22;;
52668;SDS011;76842;52.786;6.892;2024-03-17T13:44:10;9.20;;;6.95;;
52668;SDS011;76842;52.786;6.892;2024-03-17T13:47:31;9.68;;;6.68;;
52668;SDS011;76842;52.786;6.892;2024-03-17T13:50:53;11.52;;;7.00;;
52668;SDS011;76842;52.786;6.892;2024-03-17T13:54:13;10.80;;;7.32;;
52668;SDS011;76842;52.786;6.892;2024-03-17T13:57:34;8.57;;;6.40;;
52668;SDS011;76842;52.786;6.892;2024-03-17T14:00:55;8.30;;;6.70;;
52668;SDS011;76842;52.786;6.892;2024-03-17T14:04:16;9.48;;;6.95;;
52668;SDS011;76842;52.786;6.892;2024-03-17T14:07:37;8.75;;;6.28;;
52668;SDS011;76842;52.786;6.892;2024-03-17T14:10:59;10.85;;;6.80;;
52668;SDS011;76842;52.786;6.892;2024-03-17T14:14:19;13.07;;;7.38;;
52668;SDS011;76842;52.786;6.892;2024-03-17T14:17:41;7.93;;;6.65;;
52668;SDS011;76842;52.786;6.892;2024-03-17T14:21:03;10.77;;;7.20;;
52668;SDS011;76842;52.786;6.892;2024-03-17T14:24:25;11.77;;;7.40;;
52668;SDS011;76842;52.786;6.892;2024-03-17T14:27:46;10.88;;;6.45;;
52668;SDS011;76842;52.786;6.892;2024-03-17T14:31:07;10.35;;;7.68;;
52668;SDS011;76842;52.786;6.892;2024-03-17T14:34:27;9.23;;;7.13;;
52668;SDS011;76842;52.786;6.892;2024-03-17T14:37:54;8.43;;;6.47;;
52668;SDS011;76842;52.786;6.892;2024-03-17T14:41:15;8.25;;;7.00;;
52668;SDS011;76842;52.786;6.892;2024-03-17T14:44:36;8.75;;;6.78;;
52668;SDS011;76842;52.786;6.892;2024-03-17T14:47:57;11.40;;;7.47;;
52668;SDS011;76842;52.786;6.892;2024-03-17T14:51:18;9.00;;;7.78;;
52668;SDS011;76842;52.786;6.892;2024-03-17T14:54:39;14.13;;;7.85;;
52668;SDS011;76842;52.786;6.892;2024-03-17T14:57:59;10.80;;;8.23;;
52668;SDS011;76842;52.786;6.892;2024-03-17T15:01:25;9.93;;;8.75;;
52668;SDS011;76842;52.786;6.892;2024-03-17T15:04:49;10.70;;;7.90;;
52668;SDS011;76842;52.786;6.892;2024-03-17T15:08:11;12.70;;;8.68;;
52668;SDS011;76842;52.786;6.892;2024-03-17T15:11:32;12.10;;;7.82;;
52668;SDS011;76842;52.786;6.892;2024-03-17T15:14:53;11.07;;;9.57;;
52668;SDS011;76842;52.786;6.892;2024-03-17T15:18:15;12.07;;;8.48;;
52668;SDS011;76842;52.786;6.892;2024-03-17T15:21:38;14.82;;;8.18;;
52668;SDS011;76842;52.786;6.892;2024-03-17T15:24:59;10.73;;;7.70;;
52668;SDS011;76842;52.786;6.892;2024-03-17T15:28:20;11.07;;;8.57;;
52668;SDS011;76842;52.786;6.892;2024-03-17T15:31:41;15.68;;;8.63;;
52668;SDS011;76842;52.786;6.892;2024-03-17T15:35:02;13.15;;;8.52;;
52668;SDS011;76842;52.786;6.892;2024-03-17T15:38:22;8.70;;;7.50;;
52668;SDS011;76842;52.786;6.892;2024-03-17T15:41:43;11.75;;;7.63;;
52668;SDS011;76842;52.786;6.892;2024-03-17T15:45:04;10.45;;;7.47;;
52668;SDS011;76842;52.786;6.892;2024-03-17T15:48:27;10.82;;;7.93;;
52668;SDS011;76842;52.786;6.892;2024-03-17T15:51:48;9.35;;;7.22;;
52668;SDS011;76842;52.786;6.892;2024-03-17T15:55:09;10.15;;;7.05;;
52668;SDS011;76842;52.786;6.892;2024-03-17T15:58:30;10.35;;;7.82;;
52668;SDS011;76842;52.786;6.892;2024-03-17T16:01:51;8.80;;;7.03;;
52668;SDS011;76842;52.786;6.892;2024-03-17T16:05:13;10.00;;;6.75;;
52668;SDS011;76842;52.786;6.892;2024-03-17T16:08:37;9.23;;;7.63;;
52668;SDS011;76842;52.786;6.892;2024-03-17T16:15:21;11.95;;;8.40;;
52668;SDS011;76842;52.786;6.892;2024-03-17T16:18:44;11.05;;;8.55;;
52668;SDS011;76842;52.786;6.892;2024-03-17T16:22:06;13.50;;;9.27;;
52668;SDS011;76842;52.786;6.892;2024-03-17T16:28:50;9.93;;;8.07;;
52668;SDS011;76842;52.786;6.892;2024-03-17T16:32:12;10.60;;;7.57;;
52668;SDS011;76842;52.786;6.892;2024-03-17T16:35:32;10.20;;;8.35;;
52668;SDS011;76842;52.786;6.892;2024-03-17T16:38:53;11.65;;;7.78;;
52668;SDS011;76842;52.786;6.892;2024-03-17T16:42:14;13.57;;;8.48;;
52668;SDS011;76842;52.786;6.892;2024-03-17T16:45:34;11.13;;;8.52;;
52668;SDS011;76842;52.786;6.892;2024-03-17T16:49:02;10.30;;;8.15;;
52668;SDS011;76842;52.786;6.892;2024-03-17T16:52:26;12.20;;;8.77;;
52668;SDS011;76842;52.786;6.892;2024-03-17T16:55:48;13.82;;;8.68;;
52668;SDS011;76842;52.786;6.892;2024-03-17T16:59:09;10.27;;;8.38;;
52668;SDS011;76842;52.786;6.892;2024-03-17T17:02:29;15.23;;;8.38;;
52668;SDS011;76842;52.786;6.892;2024-03-17T17:05:50;11.30;;;7.97;;
52668;SDS011;76842;52.786;6.892;2024-03-17T17:09:10;12.68;;;7.93;;
52668;SDS011;76842;52.786;6.892;2024-03-17T17:12:31;9.10;;;7.53;;
52668;SDS011;76842;52.786;6.892;2024-03-17T17:15:52;11.07;;;7.78;;
52668;SDS011;76842;52.786;6.892;2024-03-17T17:19:13;11.23;;;8.18;;
52668;SDS011;76842;52.786;6.892;2024-03-17T17:22:35;10.55;;;8.77;;
52668;SDS011;76842;52.786;6.892;2024-03-17T17:25:56;11.05;;;7.65;;
52668;SDS011;76842;52.786;6.892;2024-03-17T17:29:16;13.07;;;8.70;;
52668;SDS011;76842;52.786;6.892;2024-03-17T17:32:37;10.50;;;8.38;;
52668;SDS011;76842;52.786;6.892;2024-03-17T17:35:58;10.73;;;8.57;;
52668;SDS011;76842;52.786;6.892;2024-03-17T17:39:19;11.68;;;8.35;;
52668;SDS011;76842;52.786;6.892;2024-03-17T17:42:40;10.60;;;8.68;;
52668;SDS011;76842;52.786;6.892;2024-03-17T17:46:02;11.02;;;8.75;;
52668;SDS011;76842;52.786;6.892;2024-03-17T17:49:23;11.10;;;8.20;;
52668;SDS011;76842;52.786;6.892;2024-03-17T17:52:43;14.02;;;8.63;;
52668;SDS011;76842;52.786;6.892;2024-03-17T17:56:04;10.10;;;8.15;;
52668;SDS011;76842;52.786;6.892;2024-03-17T17:59:29;11.98;;;9.27;;
52668;SDS011;76842;52.786;6.892;2024-03-17T18:02:50;13.82;;;8.85;;
52668;SDS011;76842;52.786;6.892;2024-03-17T18:06:11;13.65;;;8.95;;
52668;SDS011;76842;52.786;6.892;2024-03-17T18:09:32;12.02;;;8.15;;
52668;SDS011;76842;52.786;6.892;2024-03-17T18:12:53;14.05;;;9.82;;
52668;SDS011;76842;52.786;6.892;2024-03-17T18:16:13;15.68;;;9.95;;
52668;SDS011;76842;52.786;6.892;2024-03-17T18:19:34;19.02;;;10.15;;
52668;SDS011;76842;52.786;6.892;2024-03-17T18:22:56;13.32;;;9.15;;
52668;SDS011;76842;52.786;6.892;2024-03-17T18:26:17;11.65;;;9.00;;
52668;SDS011;76842;52.786;6.892;2024-03-17T18:29:37;12.52;;;8.73;;
52668;SDS011;76842;52.786;6.892;2024-03-17T18:32:59;11.23;;;8.43;;
52668;SDS011;76842;52.786;6.892;2024-03-17T18:36:20;15.02;;;8.93;;
52668;SDS011;76842;52.786;6.892;2024-03-17T18:39:40;11.82;;;8.73;;
52668;SDS011;76842;52.786;6.892;2024-03-17T18:43:05;12.23;;;8.80;;
52668;SDS011;76842;52.786;6.892;2024-03-17T18:46:27;11.57;;;8.00;;
52668;SDS011;76842;52.786;6.892;2024-03-17T18:49:50;10.30;;;8.38;;
52668;SDS011;76842;52.786;6.892;2024-03-17T18:53:11;15.43;;;8.73;;
52668;SDS011;76842;52.786;6.892;2024-03-17T18:56:32;11.93;;;9.15;;
52668;SDS011;76842;52.786;6.892;2024-03-17T18:59:53;12.48;;;8.98;;
52668;SDS011;76842;52.786;6.892;2024-03-17T19:03:14;12.18;;;8.60;;
52668;SDS011;76842;52.786;6.892;2024-03-17T19:06:35;11.65;;;8.27;;
52668;SDS011;76842;52.786;6.892;2024-03-17T19:09:56;12.20;;;8.30;;
52668;SDS011;76842;52.786;6.892;2024-03-17T19:13:17;11.15;;;8.13;;
52668;SDS011;76842;52.786;6.892;2024-03-17T19:16:37;12.32;;;8.25;;
52668;SDS011;76842;52.786;6.892;2024-03-17T19:19:58;12.40;;;8.50;;
52668;SDS011;76842;52.786;6.892;2024-03-17T19:23:19;11.43;;;8.10;;
52668;SDS011;76842;52.786;6.892;2024-03-17T19:26:41;11.20;;;8.55;;
52668;SDS011;76842;52.786;6.892;2024-03-17T19:30:02;13.65;;;8.60;;
52668;SDS011;76842;52.786;6.892;2024-03-17T19:33:27;14.77;;;9.10;;
52668;SDS011;76842;52.786;6.892;2024-03-17T19:36:48;13.40;;;9.73;;
52668;SDS011;76842;52.786;6.892;2024-03-17T19:40:09;12.15;;;9.60;;
52668;SDS011;76842;52.786;6.892;2024-03-17T19:43:31;14.57;;;9.82;;
52668;SDS011;76842;52.786;6.892;2024-03-17T19:46:54;13.40;;;10.00;;
52668;SDS011;76842;52.786;6.892;2024-03-17T19:50:15;11.57;;;8.32;;
52668;SDS011;76842;52.786;6.892;2024-03-17T19:53:39;14.40;;;10.32;;
52668;SDS011;76842;52.786;6.892;2024-03-17T19:57:00;14.40;;;9.52;;
52668;SDS011;76842;52.786;6.892;2024-03-17T20:00:20;14.00;;;9.35;;
52668;SDS011;76842;52.786;6.892;2024-03-17T20:03:41;14.05;;;9.85;;
52668;SDS011;76842;52.786;6.892;2024-03-17T20:07:02;12.05;;;9.50;;
52668;SDS011;76842;52.786;6.892;2024-03-17T20:10:23;13.85;;;10.23;;
52668;SDS011;76842;52.786;6.892;2024-03-17T20:13:44;13.55;;;10.20;;
52668;SDS011;76842;52.786;6.892;2024-03-17T20:17:05;18.65;;;10.90;;
52668;SDS011;76842;52.786;6.892;2024-03-17T20:23:50;14.82;;;10.35;;
52668;SDS011;76842;52.786;6.892;2024-03-17T20:27:12;14.77;;;11.70;;
52668;SDS011;76842;52.786;6.892;2024-03-17T20:30:34;16.27;;;13.20;;
52668;SDS011;76842;52.786;6.892;2024-03-17T20:33:55;16.17;;;12.73;;